Time;durP1;ratioP1;P1;durP2;ratioP2;P2;SDS_P1;SDS_P2;PMS_P1;PMS_P2;Temp;Humidity;BMP_temperature;BMP_pressure;BME280_temperature;BME280_humidity;BME280_pressure;Samples;Min_cycle;Max_cycle;Signal;HPM_P1;HPM_P2
2023/01/12 00:02:09;;;;;;;2.60;1.20;;;5.60;99.90;;;;;;5058377;28;20447;-91
2023/01/12 00:30:29;;;;;;;1.10;1.00;;;5.40;99.90;;;;;;5057220;28;20455;-87
2023/01/12 00:32:56;;;;;;;1.67;1.23;;;5.40;99.90;;;;;;5050772;28;20432;-89
2023/01/12 00:35:23;;;;;;;2.17;1.10;;;4.80;99.90;;;;;;5047966;28;20502;-88
2023/01/12 00:37:50;;;;;;;2.23;1.13;;;5.50;99.90;;;;;;5053205;28;20439;-88
2023/01/12 00:40:17;;;;;;;3.20;1.37;;;4.40;99.90;;;;;;5038680;28;20470;-94
2023/01/12 00:45:30;;;;;;;1.77;1.23;;;4.80;99.90;;;;;;5038440;28;20504;-95
2023/01/12 00:47:57;;;;;;;5.17;1.47;;;4.90;99.90;;;;;;5046222;28;20508;-94
2023/01/12 00:50:24;;;;;;;1.73;1.60;;;4.90;99.90;;;;;;5063070;28;20520;-94
2023/01/12 00:52:53;;;;;;;2.10;1.63;;;4.90;99.90;;;;;;5060663;28;20453;-94
2023/01/12 00:55:19;;;;;;;3.10;1.20;;;4.80;99.90;;;;;;5061219;28;20450;-93
2023/01/12 00:57:46;;;;;;;2.20;1.47;;;4.80;99.90;;;;;;5055692;28;20442;-92
2023/01/12 01:00:14;;;;;;;2.10;1.70;;;4.70;99.90;;;;;;5059456;28;20450;-92
2023/01/12 01:02:43;;;;;;;3.43;1.67;;;4.70;99.90;;;;;;5059824;28;20468;-92
2023/01/12 01:05:10;;;;;;;3.70;2.00;;;4.70;99.90;;;;;;5251259;23;20485;-90
2023/01/12 01:07:37;;;;;;;1.73;1.50;;;4.50;99.90;;;;;;5089622;28;20515;-89
2023/01/12 01:10:04;;;;;;;3.50;2.30;;;6.10;99.90;;;;;;5090264;28;20449;-91
2023/01/12 01:12:32;;;;;;;4.03;3.00;;;4.80;99.90;;;;;;5077955;28;20441;-79
2023/01/12 01:14:59;;;;;;;5.03;1.90;;;4.70;99.90;;;;;;5070519;28;20544;-93
2023/01/12 01:17:27;;;;;;;2.60;1.80;;;4.80;99.90;;;;;;5071805;28;20442;-79
2023/01/12 01:19:55;;;;;;;6.83;2.23;;;4.70;99.90;;;;;;5067275;28;20461;-76
2023/01/12 01:22:22;;;;;;;5.77;2.00;;;4.80;99.90;;;;;;5068686;28;20434;-79
2023/01/12 01:24:49;;;;;;;2.10;1.90;;;4.80;99.90;;;;;;5067834;28;20874;-80
2023/01/12 01:27:16;;;;;;;8.80;2.60;;;4.70;99.90;;;;;;5067813;28;20572;-79
2023/01/12 01:29:42;;;;;;;2.53;1.77;;;4.70;99.90;;;;;;5067301;28;20441;-77
2023/01/12 01:32:21;;;;;;;3.40;2.00;;;5.50;99.90;;;;;;5068066;28;20457;-79
2023/01/12 01:34:48;;;;;;;3.10;1.70;;;4.70;99.90;;;;;;5068516;28;20784;-80
2023/01/12 01:37:17;;;;;;;4.03;1.90;;;4.70;99.90;;;;;;5066950;28;20461;-81
2023/01/12 01:39:44;;;;;;;7.23;1.97;;;4.70;99.90;;;;;;5067577;28;20831;-78
2023/01/12 01:42:26;;;;;;;3.80;1.80;;;4.70;99.90;;;;;;5067915;28;20448;-81
2023/01/12 01:44:55;;;;;;;10.63;1.90;;;4.70;99.90;;;;;;5067522;28;20508;-80
2023/01/12 01:47:29;;;;;;;1.43;1.33;;;4.70;99.90;;;;;;5067913;28;20931;-78
2023/01/12 01:49:58;;;;;;;8.40;2.43;;;4.70;99.90;;;;;;5082611;28;20559;-81
2023/01/12 01:52:31;;;;;;;1.57;1.27;;;4.70;99.90;;;;;;5087898;28;21025;-78
2023/01/12 01:55:02;;;;;;;2.20;1.30;;;4.70;99.90;;;;;;5089399;28;20441;-81
2023/01/12 01:57:36;;;;;;;1.70;1.30;;;4.70;99.90;;;;;;5088652;28;20452;-79
2023/01/12 02:00:05;;;;;;;3.60;1.50;;;4.60;99.90;;;;;;5088435;28;20530;-78
2023/01/12 02:02:34;;;;;;;6.33;1.70;;;4.60;99.90;;;;;;5088866;28;20445;-83
2023/01/12 02:05:01;;;;;;;4.20;1.77;;;4.50;99.90;;;;;;5094975;28;20560;-78
2023/01/12 02:07:29;;;;;;;3.63;1.40;;;4.50;99.90;;;;;;5107140;28;20498;-82
2023/01/12 02:09:56;;;;;;;2.13;1.30;;;4.50;99.90;;;;;;5107825;28;20485;-78
2023/01/12 02:18:09;;;;;;;5.83;1.70;;;4.50;99.90;;;;;;5107987;28;21153;-78
2023/01/12 02:21:00;;;;;;;4.53;1.30;;;4.40;99.90;;;;;;5108506;28;20541;-80
2023/01/12 02:23:58;;;;;;;5.20;1.60;;;4.40;99.90;;;;;;5099544;28;20523;-77
2023/01/12 02:27:04;;;;;;;3.00;1.50;;;4.40;99.90;;;;;;5108323;28;20436;-83
2023/01/12 02:30:06;;;;;;;2.30;1.30;;;4.40;99.90;;;;;;5108828;28;21092;-79
2023/01/12 02:32:40;;;;;;;2.23;1.50;;;4.30;99.90;;;;;;5108112;28;20876;-79
2023/01/12 02:35:15;;;;;;;6.00;1.70;;;4.20;99.90;;;;;;5107919;28;20446;-79
2023/01/12 02:37:48;;;;;;;4.07;1.40;;;4.20;99.90;;;;;;5107954;28;20456;-77
2023/01/12 02:40:22;;;;;;;3.13;1.60;;;4.20;99.90;;;;;;5106947;28;20470;-81
2023/01/12 02:42:59;;;;;;;3.30;1.60;;;4.20;99.90;;;;;;5110283;28;20815;-77
2023/01/12 02:45:34;;;;;;;2.33;1.20;;;4.10;99.90;;;;;;5111282;28;20432;-77
2023/01/12 02:48:09;;;;;;;2.87;1.40;;;4.10;99.90;;;;;;5111293;28;20569;-78
2023/01/12 02:50:43;;;;;;;2.80;1.40;;;4.10;99.90;;;;;;5111279;28;20427;-78
2023/01/12 02:53:18;;;;;;;2.97;1.43;;;4.00;99.90;;;;;;5111588;28;20439;-80
2023/01/12 02:55:46;;;;;;;4.43;1.63;;;4.10;99.90;;;;;;5110436;28;20455;-79
2023/01/12 02:58:16;;;;;;;2.17;1.37;;;4.10;99.90;;;;;;5111503;28;20478;-79
2023/01/12 03:00:45;;;;;;;4.17;1.70;;;4.20;99.90;;;;;;5111520;28;20526;-82
2023/01/12 03:03:16;;;;;;;7.03;1.27;;;4.00;99.90;;;;;;5111237;28;21266;-77
2023/01/12 03:05:42;;;;;;;3.53;1.33;;;4.10;99.90;;;;;;5111480;28;20487;-78
2023/01/12 03:08:12;;;;;;;4.23;1.57;;;4.10;99.90;;;;;;5111701;28;20493;-78
2023/01/12 03:11:03;;;;;;;4.20;1.67;;;4.00;99.90;;;;;;5110769;28;20436;-78
2023/01/12 03:13:33;;;;;;;7.50;1.37;;;4.00;99.90;;;;;;5103627;28;20440;-78
2023/01/12 03:16:02;;;;;;;4.83;2.30;;;4.10;99.90;;;;;;5111119;28;20439;-78
2023/01/12 03:18:32;;;;;;;5.57;1.80;;;4.00;99.90;;;;;;5110901;28;20463;-78
2023/01/12 03:21:05;;;;;;;12.37;1.33;;;4.00;99.90;;;;;;5110864;28;20552;-78
2023/01/12 03:23:39;;;;;;;2.00;1.30;;;4.00;99.90;;;;;;5110908;28;20456;-81
2023/01/12 03:26:10;;;;;;;1.83;1.50;;;4.10;99.90;;;;;;5110815;28;20444;-79
2023/01/12 03:28:39;;;;;;;4.60;1.23;;;4.10;99.90;;;;;;5110377;28;20491;-80
2023/01/12 03:31:09;;;;;;;3.53;1.70;;;4.30;99.90;;;;;;5111130;28;20492;-78
2023/01/12 03:33:39;;;;;;;2.60;1.43;;;4.10;99.90;;;;;;5110665;28;20452;-79
2023/01/12 03:36:13;;;;;;;1.50;1.17;;;4.10;99.90;;;;;;5111282;28;20450;-78
2023/01/12 03:38:49;;;;;;;4.60;1.60;;;4.00;99.90;;;;;;5110517;28;20455;-78
2023/01/12 03:41:28;;;;;;;3.90;1.40;;;3.90;99.90;;;;;;5110551;28;20519;-77
2023/01/12 03:44:00;;;;;;;2.90;1.50;;;3.90;99.90;;;;;;5110608;28;20518;-77
2023/01/12 03:46:31;;;;;;;5.47;1.67;;;4.10;99.90;;;;;;5109822;28;20456;-78
2023/01/12 03:49:04;;;;;;;3.60;1.60;;;3.90;99.90;;;;;;5110297;28;20506;-78
2023/01/12 03:51:34;;;;;;;4.37;1.50;;;4.00;99.90;;;;;;5110778;28;20440;-78
2023/01/12 03:54:04;;;;;;;2.50;1.20;;;3.90;99.90;;;;;;5110881;28;20500;-78
2023/01/12 03:56:35;;;;;;;3.10;1.20;;;3.90;99.90;;;;;;5110522;28;20443;-79
2023/01/12 03:59:03;;;;;;;2.90;1.20;;;3.90;99.90;;;;;;5110458;28;20462;-78
2023/01/12 04:01:30;;;;;;;6.40;2.07;;;3.90;99.90;;;;;;5110062;28;20464;-81
2023/01/12 04:03:56;;;;;;;5.77;1.37;;;3.80;99.90;;;;;;5110590;28;20455;-80
2023/01/12 04:06:24;;;;;;;1.70;1.10;;;3.70;99.90;;;;;;5110918;28;20470;-81
2023/01/12 04:08:51;;;;;;;1.67;1.27;;;3.80;99.90;;;;;;5111495;28;20488;-82
2023/01/12 04:14:03;;;;;;;5.20;1.40;;;3.70;99.90;;;;;;5123796;28;20477;-84
2023/01/12 04:16:29;;;;;;;3.43;1.90;;;3.70;99.90;;;;;;5124831;28;20502;-83
2023/01/12 04:18:56;;;;;;;2.00;1.10;;;3.70;99.90;;;;;;5123103;28;20458;-81
2023/01/12 04:24:08;;;;;;;7.17;1.57;;;3.80;99.90;;;;;;5111196;28;20558;-84
2023/01/12 04:26:35;;;;;;;1.57;1.37;;;3.80;99.90;;;;;;5110318;28;20456;-81
2023/01/12 04:29:02;;;;;;;2.40;1.23;;;3.90;99.90;;;;;;5110353;28;20484;-84
2023/01/12 04:31:29;;;;;;;2.60;1.27;;;3.80;99.90;;;;;;5110412;28;20533;-79
2023/01/12 04:33:56;;;;;;;9.00;2.00;;;3.80;99.90;;;;;;5109026;28;20490;-77
2023/01/12 04:36:24;;;;;;;8.70;2.30;;;3.90;99.90;;;;;;5109768;28;20455;-80
2023/01/12 04:38:51;;;;;;;3.77;1.33;;;3.90;99.90;;;;;;5110450;28;20439;-81
2023/01/12 04:41:17;;;;;;;6.50;1.67;;;3.80;99.90;;;;;;5110305;28;20442;-80
2023/01/12 04:43:46;;;;;;;2.20;1.20;;;3.80;99.90;;;;;;5109928;28;20451;-77
2023/01/12 04:46:13;;;;;;;2.23;1.10;;;3.90;99.90;;;;;;5109219;28;20448;-85
2023/01/12 04:48:42;;;;;;;1.53;0.93;;;3.90;99.90;;;;;;5109206;28;20484;-80
2023/01/12 04:51:09;;;;;;;2.17;1.40;;;3.80;99.90;;;;;;5088932;28;20498;-78
2023/01/12 04:53:37;;;;;;;3.10;1.33;;;3.80;99.90;;;;;;5089075;28;20940;-79
2023/01/12 04:56:04;;;;;;;2.23;1.10;;;3.90;99.90;;;;;;5089270;28;20460;-78
2023/01/12 04:58:31;;;;;;;1.90;1.20;;;3.90;99.90;;;;;;5088397;28;20441;-78
2023/01/12 05:00:58;;;;;;;2.93;1.40;;;3.90;99.90;;;;;;5094361;28;20490;-77
2023/01/12 05:03:25;;;;;;;3.53;1.40;;;3.90;99.90;;;;;;5108627;28;20454;-81
2023/01/12 05:05:52;;;;;;;2.10;1.23;;;3.90;99.90;;;;;;5108417;28;20554;-78
2023/01/12 05:11:04;;;;;;;2.80;1.20;;;3.90;99.90;;;;;;5108965;28;20431;-79
2023/01/12 05:13:31;;;;;;;2.40;1.10;;;4.00;99.90;;;;;;5108802;28;20459;-79
2023/01/12 05:16:08;;;;;;;2.07;1.07;;;4.00;99.90;;;;;;5109231;28;20830;-79
2023/01/12 05:18:35;;;;;;;5.20;1.20;;;4.00;99.90;;;;;;5108637;28;20439;-77
2023/01/12 05:21:02;;;;;;;3.07;1.47;;;4.10;99.90;;;;;;5111377;28;20448;-79
2023/01/12 05:23:29;;;;;;;1.60;1.00;;;4.00;99.90;;;;;;5111062;28;20443;-78
2023/01/12 05:25:58;;;;;;;2.80;1.03;;;4.10;99.90;;;;;;5107715;28;20463;-74
2023/01/12 05:28:27;;;;;;;6.00;1.10;;;4.00;99.90;;;;;;5108108;28;20491;-77
2023/01/12 05:30:54;;;;;;;4.50;1.40;;;4.10;99.90;;;;;;5108261;28;20810;-77
2023/01/12 05:33:21;;;;;;;3.63;1.47;;;4.10;99.90;;;;;;5108479;28;20428;-76
2023/01/12 05:35:48;;;;;;;4.40;1.70;;;4.10;99.90;;;;;;5108563;28;20455;-75
2023/01/12 05:38:14;;;;;;;2.40;1.10;;;4.10;99.90;;;;;;5105799;28;21069;-77
2023/01/12 05:40:41;;;;;;;6.70;1.60;;;4.20;99.90;;;;;;5106042;28;20440;-77
2023/01/12 05:45:57;;;;;;;1.73;1.33;;;4.30;99.90;;;;;;5106555;28;20905;-76
2023/01/12 05:48:24;;;;;;;2.60;1.47;;;4.30;99.90;;;;;;5104570;28;20480;-79
2023/01/12 05:50:50;;;;;;;4.60;1.53;;;4.30;99.90;;;;;;5108994;28;20452;-83
2023/01/12 05:53:17;;;;;;;2.73;1.60;;;4.40;99.90;;;;;;5111813;28;20447;-82
2023/01/12 05:55:44;;;;;;;4.63;1.40;;;4.40;99.90;;;;;;5110405;28;20444;-77
2023/01/12 05:58:11;;;;;;;3.23;1.73;;;4.40;99.90;;;;;;5107059;28;20439;-80
2023/01/12 06:00:37;;;;;;;4.23;1.47;;;4.30;99.90;;;;;;5108355;28;20812;-78
2023/01/12 06:03:11;;;;;;;3.13;1.20;;;4.40;99.90;;;;;;5112545;28;20442;-85
2023/01/12 06:05:38;;;;;;;1.83;1.10;;;4.50;99.90;;;;;;5111282;28;20498;-79
2023/01/12 06:08:05;;;;;;;1.97;1.27;;;4.30;99.90;;;;;;5108654;28;21028;-77
2023/01/12 06:10:33;;;;;;;6.90;1.50;;;4.30;99.90;;;;;;5106692;28;20467;-76
2023/01/12 06:15:49;;;;;;;1.33;1.10;;;4.40;99.90;;;;;;5106291;28;20462;-83
2023/01/12 06:18:21;;;;;;;2.73;1.23;;;4.50;99.90;;;;;;5109430;28;20463;-75
2023/01/12 06:20:48;;;;;;;1.67;1.27;;;4.40;99.90;;;;;;5110998;28;20447;-76
2023/01/12 06:23:15;;;;;;;4.17;1.57;;;4.50;99.90;;;;;;5109309;28;20466;-83
2023/01/12 06:25:42;;;;;;;1.60;1.43;;;4.40;99.90;;;;;;5111485;28;20440;-84
2023/01/12 06:28:09;;;;;;;2.57;1.37;;;4.40;99.90;;;;;;5111708;28;21218;-78
2023/01/12 06:30:36;;;;;;;3.60;1.30;;;4.40;99.90;;;;;;5111128;28;20865;-79
2023/01/12 06:33:03;;;;;;;8.17;2.33;;;4.40;99.90;;;;;;5110026;28;20447;-79
2023/01/12 06:35:31;;;;;;;3.70;1.50;;;4.40;99.90;;;;;;5112102;28;20484;-88
2023/01/12 06:37:58;;;;;;;2.53;1.30;;;4.40;99.90;;;;;;5114467;28;20432;-85
2023/01/12 06:40:25;;;;;;;1.20;1.10;;;4.30;99.90;;;;;;5114072;28;20436;-90
2023/01/12 06:42:51;;;;;;;3.33;1.00;;;4.40;99.90;;;;;;5111869;28;20474;-86
2023/01/12 06:45:18;;;;;;;3.10;1.83;;;4.50;99.90;;;;;;5115307;28;21025;-79
2023/01/12 06:47:46;;;;;;;2.60;1.57;;;4.60;99.90;;;;;;5119472;28;20435;-79
2023/01/12 06:50:13;;;;;;;2.10;1.00;;;4.70;99.90;;;;;;5112509;28;20478;-80
2023/01/12 06:52:42;;;;;;;4.23;1.70;;;4.70;99.90;;;;;;5111181;28;21211;-79
2023/01/12 06:55:10;;;;;;;3.43;0.90;;;5.00;99.90;;;;;;5113718;28;20455;-79
2023/01/12 06:57:37;;;;;;;5.37;1.70;;;4.80;99.90;;;;;;5115999;28;20432;-77
2023/01/12 07:00:06;;;;;;;1.70;1.30;;;4.80;99.90;;;;;;5117850;28;20436;-81
2023/01/12 07:02:33;;;;;;;6.90;1.57;;;4.90;99.90;;;;;;5117959;28;20435;-84
2023/01/12 07:05:00;;;;;;;4.10;1.40;;;4.90;99.90;;;;;;5117833;28;20479;-78
2023/01/12 07:07:26;;;;;;;2.47;1.40;;;5.10;99.90;;;;;;5113768;28;20474;-81
2023/01/12 07:09:55;;;;;;;6.63;1.90;;;5.10;99.90;;;;;;5112271;28;20476;-78
2023/01/12 07:12:22;;;;;;;4.40;1.50;;;5.10;99.90;;;;;;5113066;28;20467;-82
2023/01/12 07:14:49;;;;;;;6.33;1.80;;;5.10;99.90;;;;;;5112224;28;20454;-79
2023/01/12 07:17:16;;;;;;;5.80;1.93;;;5.20;99.90;;;;;;5113702;28;20440;-84
2023/01/12 07:19:43;;;;;;;2.90;1.27;;;5.20;99.90;;;;;;5117907;28;20471;-86
2023/01/12 07:22:10;;;;;;;2.80;1.40;;;5.10;99.90;;;;;;5214478;22;20878;-85
2023/01/12 07:24:37;;;;;;;4.57;1.60;;;5.10;99.90;;;;;;5073932;28;20469;-81
2023/01/12 07:27:06;;;;;;;8.37;1.57;;;5.10;99.90;;;;;;5073120;28;20884;-78
2023/01/12 07:29:33;;;;;;;4.50;1.13;;;5.20;99.90;;;;;;5074713;28;20576;-83
2023/01/12 07:32:00;;;;;;;2.77;1.37;;;5.10;99.90;;;;;;5075172;28;20533;-77
2023/01/12 07:34:28;;;;;;;5.43;1.47;;;5.20;99.90;;;;;;5074848;28;20598;-79
2023/01/12 07:36:55;;;;;;;1.63;1.13;;;5.20;99.90;;;;;;5074487;28;20446;-80
2023/01/12 07:39:22;;;;;;;3.73;1.30;;;5.20;99.90;;;;;;5074796;28;20955;-77
2023/01/12 07:44:35;;;;;;;6.47;1.63;;;5.20;99.90;;;;;;5069498;28;21104;-77
2023/01/12 07:47:02;;;;;;;2.90;1.40;;;5.10;99.90;;;;;;5069654;28;20449;-81
2023/01/12 07:49:29;;;;;;;2.30;1.30;;;5.20;99.90;;;;;;5085616;28;20483;-79
2023/01/12 07:51:56;;;;;;;2.63;1.50;;;5.20;99.90;;;;;;5089784;28;20451;-79
2023/01/12 07:54:23;;;;;;;1.90;1.30;;;5.30;99.90;;;;;;5090939;28;20437;-79
2023/01/12 07:56:50;;;;;;;1.97;1.20;;;5.30;99.90;;;;;;5082360;28;20626;-80
2023/01/12 07:59:17;;;;;;;2.73;1.40;;;5.20;99.90;;;;;;5081151;28;20476;-79
2023/01/12 08:01:45;;;;;;;1.90;1.10;;;5.30;99.90;;;;;;5090021;28;20444;-79
2023/01/12 08:04:12;;;;;;;3.97;1.50;;;5.40;99.90;;;;;;5083929;28;20469;-80
2023/01/12 08:06:39;;;;;;;2.17;1.37;;;5.30;99.90;;;;;;5080490;28;20471;-79
2023/01/12 08:09:06;;;;;;;3.07;1.87;;;5.40;99.90;;;;;;5089573;28;20473;-82
2023/01/12 08:11:33;;;;;;;6.33;1.30;;;5.50;99.90;;;;;;5089721;28;20441;-81
2023/01/12 08:14:00;;;;;;;1.50;1.40;;;5.50;99.90;;;;;;5088777;28;20449;-81
2023/01/12 08:16:31;;;;;;;2.40;1.43;;;5.60;99.90;;;;;;5089555;28;20475;-82
2023/01/12 08:19:02;;;;;;;5.37;1.33;;;5.70;99.90;;;;;;5090914;28;20451;-84
2023/01/12 08:21:34;;;;;;;4.20;1.40;;;5.70;99.90;;;;;;5089723;28;20449;-82
2023/01/12 08:24:04;;;;;;;5.40;1.37;;;5.80;99.90;;;;;;5089266;28;20484;-85
2023/01/12 08:26:35;;;;;;;3.53;1.30;;;5.90;99.90;;;;;;5089944;28;20545;-87
2023/01/12 08:29:07;;;;;;;2.83;1.30;;;6.40;99.90;;;;;;5089247;28;20476;-83
2023/01/12 08:31:35;;;;;;;3.37;1.33;;;6.20;99.90;;;;;;5088892;28;21042;-86
2023/01/12 08:34:05;;;;;;;1.73;0.70;;;6.40;99.90;;;;;;5088884;28;20451;-83
2023/01/12 08:36:33;;;;;;;2.60;1.73;;;6.50;99.90;;;;;;5088916;28;20540;-77
2023/01/12 08:39:03;;;;;;;3.50;1.37;;;6.40;99.90;;;;;;5087930;28;20556;-78
2023/01/12 08:41:33;;;;;;;3.57;1.90;;;6.40;99.90;;;;;;5086768;28;20459;-78
2023/01/12 08:44:04;;;;;;;1.20;0.90;;;6.50;99.90;;;;;;5086604;28;20459;-82
2023/01/12 08:46:32;;;;;;;1.47;1.20;;;6.50;99.90;;;;;;5088755;28;20502;-85
2023/01/12 08:48:59;;;;;;;3.97;1.83;;;6.50;99.90;;;;;;5088785;28;20588;-80
2023/01/12 08:51:28;;;;;;;4.83;1.40;;;6.60;99.90;;;;;;5089087;28;20445;-80
2023/01/12 08:53:55;;;;;;;4.13;1.63;;;6.60;99.90;;;;;;5088267;28;20448;-81
2023/01/12 08:56:22;;;;;;;5.37;1.10;;;6.60;99.90;;;;;;5088939;28;20528;-81
2023/01/12 08:58:49;;;;;;;5.43;1.77;;;6.80;99.90;;;;;;5087646;28;20827;-82
2023/01/12 09:01:18;;;;;;;2.90;1.40;;;6.40;99.90;;;;;;5088182;28;20453;-86
2023/01/12 09:03:46;;;;;;;1.50;1.40;;;6.80;99.90;;;;;;5087376;28;20496;-82
2023/01/12 09:06:15;;;;;;;2.13;1.47;;;6.90;99.90;;;;;;5088968;28;20459;-90
2023/01/12 09:08:44;;;;;;;4.70;1.40;;;6.80;99.90;;;;;;5088219;28;20458;-80
2023/01/12 09:11:12;;;;;;;1.17;1.07;;;7.10;99.90;;;;;;5088682;28;20453;-78
2023/01/12 09:13:39;;;;;;;2.03;1.40;;;7.10;99.90;;;;;;5087843;28;20459;-79
2023/01/12 09:16:08;;;;;;;2.50;1.20;;;7.10;99.90;;;;;;5088637;28;20818;-81
2023/01/12 09:18:36;;;;;;;2.37;1.03;;;7.10;99.90;;;;;;5087493;28;20448;-81
2023/01/12 09:21:04;;;;;;;1.63;1.00;;;7.10;99.90;;;;;;5088701;28;20478;-87
2023/01/12 09:23:32;;;;;;;5.40;2.00;;;7.20;99.90;;;;;;5088410;28;20476;-82
2023/01/12 09:26:04;;;;;;;5.50;1.50;;;7.10;99.90;;;;;;5088267;28;20465;-88
2023/01/12 09:28:31;;;;;;;2.90;1.10;;;7.20;99.90;;;;;;5088090;28;20464;-82
2023/01/12 09:31:01;;;;;;;11.67;1.97;;;7.20;99.90;;;;;;5084733;28;20995;-82
2023/01/12 09:33:29;;;;;;;1.20;1.00;;;7.40;99.90;;;;;;5088596;28;20452;-80
2023/01/12 09:36:00;;;;;;;3.10;1.63;;;7.30;99.90;;;;;;5088265;28;20498;-82
2023/01/12 09:38:27;;;;;;;1.30;1.10;;;7.40;99.90;;;;;;5087950;28;20456;-80
2023/01/12 09:40:53;;;;;;;1.30;1.10;;;7.60;99.90;;;;;;5087461;28;20448;-81
2023/01/12 09:49:00;;;;;;;7.33;1.20;;;7.60;99.90;;;;;;5087339;28;20932;-82
2023/01/12 09:51:33;;;;;;;2.17;1.20;;;7.70;99.90;;;;;;5092325;28;20943;-80
2023/01/12 09:54:00;;;;;;;1.33;1.20;;;7.90;99.90;;;;;;5093204;28;20547;-80
2023/01/12 09:56:34;;;;;;;2.30;1.33;;;7.90;99.90;;;;;;5084785;28;20742;-78
2023/01/12 09:59:28;;;;;;;6.33;1.23;;;7.90;99.90;;;;;;5084039;28;20452;-80
2023/01/12 10:01:56;;;;;;;2.40;1.33;;;7.80;99.90;;;;;;5091943;28;21015;-80
2023/01/12 10:04:25;;;;;;;3.20;1.30;;;7.90;99.90;;;;;;5094354;28;20441;-79
2023/01/12 10:06:52;;;;;;;2.70;1.50;;;8.10;99.90;;;;;;5096914;28;20468;-83
2023/01/12 10:09:21;;;;;;;3.93;1.47;;;8.00;99.90;;;;;;5093362;28;20850;-85
2023/01/12 10:11:53;;;;;;;3.53;1.33;;;8.00;99.90;;;;;;5091088;28;20693;-85
2023/01/12 10:14:42;;;;;;;1.80;1.03;;;8.00;99.90;;;;;;5091811;28;20488;-85
2023/01/12 10:17:26;;;;;;;1.93;1.10;;;8.00;99.90;;;;;;5058232;28;20466;-87
2023/01/12 10:20:01;;;;;;;5.67;1.87;;;8.10;99.90;;;;;;5096319;28;20449;-82
2023/01/12 10:22:37;;;;;;;3.13;1.43;;;8.00;99.90;;;;;;5092425;28;20470;-86
2023/01/12 10:25:22;;;;;;;3.17;1.40;;;8.10;99.90;;;;;;5092468;28;20444;-81
2023/01/12 10:27:52;;;;;;;4.17;1.30;;;8.00;99.90;;;;;;5090215;28;20446;-89
2023/01/12 10:30:23;;;;;;;2.73;1.30;;;8.00;99.90;;;;;;5091781;28;20869;-82
2023/01/12 10:32:51;;;;;;;6.23;1.87;;;8.10;99.90;;;;;;5091201;28;20950;-80
2023/01/12 10:35:21;;;;;;;5.40;1.40;;;8.20;99.90;;;;;;5091441;28;20448;-84
2023/01/12 10:37:50;;;;;;;6.73;1.10;;;8.30;99.90;;;;;;5088516;28;20870;-83
2023/01/12 10:40:26;;;;;;;4.60;1.23;;;8.20;99.90;;;;;;5072416;28;20456;-78
2023/01/12 10:45:43;;;;;;;1.83;1.10;;;8.40;99.90;;;;;;5081360;28;20471;-83
2023/01/12 10:48:21;;;;;;;24.47;3.10;;;8.40;99.90;;;;;;5095274;28;20449;-83
2023/01/12 10:50:57;;;;;;;1.57;1.47;;;8.30;99.90;;;;;;5090841;28;20948;-84
2023/01/12 10:53:29;;;;;;;2.93;1.33;;;8.30;99.90;;;;;;5091607;28;20506;-82
2023/01/12 10:55:57;;;;;;;1.73;1.27;;;8.70;99.90;;;;;;5093126;28;20448;-80
2023/01/12 10:58:29;;;;;;;1.73;1.03;;;8.80;99.90;;;;;;5097422;28;20814;-82
2023/01/12 11:00:56;;;;;;;2.50;1.43;;;8.50;99.90;;;;;;5091484;28;21018;-82
2023/01/12 11:03:31;;;;;;;2.10;1.10;;;8.70;99.90;;;;;;5093950;28;20457;-85
2023/01/12 11:06:15;;;;;;;2.80;1.00;;;8.50;99.90;;;;;;5091893;28;20444;-83
2023/01/12 11:08:42;;;;;;;2.07;1.20;;;8.60;99.90;;;;;;5093488;28;20457;-85
2023/01/12 11:11:22;;;;;;;1.30;1.20;;;8.70;99.90;;;;;;5095746;28;20472;-86
2023/01/12 11:13:53;;;;;;;3.83;1.60;;;8.60;99.90;;;;;;5093544;28;20524;-84
2023/01/12 11:16:23;;;;;;;5.03;1.17;;;8.70;99.90;;;;;;5095281;28;20461;-84
2023/01/12 11:19:04;;;;;;;4.40;1.70;;;8.70;99.90;;;;;;5087135;28;20477;-82
2023/01/12 11:21:36;;;;;;;3.50;1.37;;;8.60;99.90;;;;;;5099649;28;20474;-88
2023/01/12 11:24:10;;;;;;;1.70;1.20;;;8.80;99.90;;;;;;5097522;28;20530;-91
2023/01/12 11:26:44;;;;;;;2.30;0.90;;;8.70;99.90;;;;;;5090004;28;20448;-79
2023/01/12 11:29:29;;;;;;;3.87;1.10;;;9.40;99.90;;;;;;5092718;28;20531;-80
2023/01/12 11:32:02;;;;;;;1.17;0.90;;;8.80;99.90;;;;;;5090505;28;20755;-79
2023/01/12 11:34:35;;;;;;;5.63;1.30;;;8.80;99.90;;;;;;5089632;28;20461;-89
2023/01/12 11:37:11;;;;;;;1.57;1.10;;;8.70;99.90;;;;;;5089682;28;20464;-79
2023/01/12 11:39:39;;;;;;;1.93;0.90;;;8.80;99.90;;;;;;5078976;28;20982;-79
2023/01/12 11:45:01;;;;;;;5.23;0.90;;;8.80;99.90;;;;;;5069532;28;20436;-81
2023/01/12 11:47:32;;;;;;;4.53;1.20;;;8.80;99.90;;;;;;5072997;28;20513;-80
2023/01/12 11:50:06;;;;;;;1.70;1.50;;;8.80;99.90;;;;;;5061100;28;20485;-79
2023/01/12 11:52:34;;;;;;;3.00;0.93;;;8.80;99.90;;;;;;5056311;28;20455;-77
2023/01/12 11:55:02;;;;;;;5.10;1.20;;;8.80;99.90;;;;;;5057779;28;20452;-78
2023/01/12 11:57:41;;;;;;;2.20;1.43;;;8.80;99.90;;;;;;5062479;28;20475;-81
2023/01/12 12:00:37;;;;;;;2.83;0.97;;;8.90;99.90;;;;;;5061106;28;20441;-78
2023/01/12 12:03:43;;;;;;;5.80;1.40;;;8.80;99.90;;;;;;5048744;28;20534;-81
2023/01/12 12:06:26;;;;;;;2.07;1.40;;;8.80;99.90;;;;;;5060488;28;20434;-89
2023/01/12 12:09:04;;;;;;;4.47;1.17;;;8.70;99.90;;;;;;5061915;28;20450;-85
2023/01/12 12:11:41;;;;;;;4.10;1.30;;;8.70;99.90;;;;;;5058518;28;20568;-81
2023/01/12 12:14:19;;;;;;;3.17;1.03;;;8.70;99.90;;;;;;5059504;28;20441;-82
2023/01/12 12:16:56;;;;;;;1.70;1.00;;;8.70;99.90;;;;;;5061125;28;20453;-84
2023/01/12 12:19:31;;;;;;;3.73;1.43;;;8.70;99.90;;;;;;5065018;28;21007;-80
2023/01/12 12:22:06;;;;;;;1.47;1.17;;;8.70;99.90;;;;;;5064521;28;20823;-82
2023/01/12 12:25:05;;;;;;;2.40;1.00;;;8.70;99.90;;;;;;5064168;28;20536;-80
2023/01/12 12:27:43;;;;;;;1.00;0.90;;;8.70;99.90;;;;;;5059188;28;20446;-85
2023/01/12 12:30:28;;;;;;;2.07;1.07;;;8.80;99.90;;;;;;5061685;28;20473;-81
2023/01/12 12:33:03;;;;;;;2.00;1.00;;;8.80;99.90;;;;;;5059527;28;20457;-86
2023/01/12 12:35:42;;;;;;;3.23;1.40;;;9.00;99.90;;;;;;5060079;28;20433;-84
2023/01/12 12:38:25;;;;;;;2.50;1.30;;;8.70;99.90;;;;;;5058807;28;20487;-84
2023/01/12 12:46:59;;;;;;;1.67;1.00;;;8.70;99.90;;;;;;5058645;28;20855;-80
2023/01/12 12:49:31;;;;;;;1.23;1.13;;;8.70;99.90;;;;;;5059553;28;20462;-91
2023/01/12 12:52:00;;;;;;;1.40;1.10;;;8.60;99.90;;;;;;5057806;28;20569;-89
2023/01/12 12:54:29;;;;;;;1.37;0.90;;;8.70;99.90;;;;;;5058764;28;20453;-87
2023/01/12 12:56:57;;;;;;;1.20;1.10;;;8.70;99.90;;;;;;5059276;28;20473;-86
2023/01/12 12:59:51;;;;;;;3.10;1.07;;;8.70;99.90;;;;;;5061836;28;20453;-85
2023/01/12 13:02:33;;;;;;;2.23;1.30;;;8.60;99.90;;;;;;5044733;28;20453;-81
2023/01/12 13:05:02;;;;;;;1.90;0.90;;;8.70;99.90;;;;;;5057469;28;20458;-88
2023/01/12 13:07:29;;;;;;;1.40;1.07;;;8.70;99.90;;;;;;5054802;28;20465;-82
2023/01/12 13:10:26;;;;;;;1.77;1.57;;;8.60;99.90;;;;;;5053789;28;20921;-82
2023/01/12 13:13:28;;;;;;;1.83;0.97;;;8.60;99.90;;;;;;5053158;28;20447;-82
2023/01/12 13:16:40;;;;;;;1.43;1.30;;;8.70;99.90;;;;;;5055945;28;20453;-82
2023/01/12 13:19:11;;;;;;;1.30;0.90;;;8.60;99.90;;;;;;5027603;28;20434;-84
2023/01/12 13:21:55;;;;;;;3.20;1.20;;;8.50;99.90;;;;;;5059975;28;20489;-81
2023/01/12 13:24:42;;;;;;;1.03;0.93;;;8.50;99.90;;;;;;5067585;28;20558;-91
2023/01/12 13:27:48;;;;;;;1.00;0.90;;;8.50;99.90;;;;;;5068186;28;20500;-93
2023/01/12 13:30:22;;;;;;;2.60;1.03;;;8.50;99.90;;;;;;5057213;28;20482;-88
2023/01/12 13:32:59;;;;;;;3.13;1.30;;;8.50;99.90;;;;;;5067275;28;20468;-81
2023/01/12 13:35:55;;;;;;;2.20;1.10;;;8.60;99.90;;;;;;5068511;28;20494;-84
2023/01/12 13:38:43;;;;;;;2.03;1.10;;;8.50;99.90;;;;;;5052036;28;20474;-83
2023/01/12 13:44:03;;;;;;;4.60;1.10;;;8.50;99.90;;;;;;5066307;28;20818;-82
2023/01/12 13:46:36;;;;;;;4.03;1.20;;;8.50;99.90;;;;;;5070999;28;20477;-85
2023/01/12 13:49:03;;;;;;;3.20;1.00;;;8.50;99.90;;;;;;5070029;28;20473;-83
2023/01/12 13:51:38;;;;;;;1.10;1.00;;;8.50;99.90;;;;;;5080432;28;20530;-92
2023/01/12 13:54:10;;;;;;;1.80;1.00;;;8.50;99.90;;;;;;5086433;28;20439;-93
2023/01/12 13:56:37;;;;;;;2.70;1.40;;;8.50;99.90;;;;;;5086264;28;20448;-95
2023/01/12 13:59:10;;;;;;;1.43;0.90;;;8.40;99.90;;;;;;5086539;28;20442;-93
2023/01/12 14:01:39;;;;;;;2.57;1.30;;;8.30;99.90;;;;;;5085187;28;20446;-85
2023/01/12 14:04:35;;;;;;;1.17;1.03;;;8.30;99.90;;;;;;5147415;23;20491;-84
2023/01/12 14:07:14;;;;;;;1.00;0.90;;;8.40;99.90;;;;;;5038428;28;20539;-93
2023/01/12 14:09:50;;;;;;;1.50;1.10;;;8.40;99.90;;;;;;5044424;28;20447;-92
2023/01/12 14:13:07;;;;;;;4.83;1.20;;;7.60;99.90;;;;;;5047335;28;20490;-93
2023/01/12 14:18:23;;;;;;;3.50;1.00;;;8.70;99.90;;;;;;5025754;28;20440;-92
2023/01/12 14:20:53;;;;;;;1.50;1.10;;;9.10;99.90;;;;;;5023318;28;20465;-86
2023/01/12 14:23:23;;;;;;;4.03;1.00;;;9.50;99.90;;;;;;5013997;28;20449;-94
2023/01/12 14:26:16;;;;;;;2.57;0.97;;;8.50;99.90;;;;;;5033699;28;20487;-94
2023/01/12 14:28:45;;;;;;;1.10;0.83;;;8.40;99.90;;;;;;5051991;28;20465;-94
2023/01/12 14:31:25;;;;;;;2.23;1.10;;;8.30;99.90;;;;;;5051810;28;20463;-93
2023/01/12 14:33:58;;;;;;;1.10;1.00;;;8.50;99.90;;;;;;5048155;28;20444;-94
2023/01/12 14:36:29;;;;;;;2.00;1.00;;;7.50;99.90;;;;;;5051070;28;20470;-94